createdAt,value
2022-10-13T00:01:21.030Z,7.03
2022-10-13T00:03:48.918Z,5.70
2022-10-13T00:06:19.139Z,5.93
2022-10-13T00:08:47.050Z,5.47
2022-10-13T00:11:21.851Z,5.78
2022-10-13T00:13:50.258Z,6.13
2022-10-13T00:16:21.442Z,5.95
2022-10-13T00:18:49.761Z,5.25
2022-10-13T00:21:21.768Z,6.03
2022-10-13T00:23:49.812Z,5.53
2022-10-13T00:26:17.988Z,6.20
2022-10-13T00:28:49.733Z,6.70
2022-10-13T00:31:27.715Z,6.07
2022-10-13T00:33:56.080Z,5.35
2022-10-13T00:36:24.193Z,6.72
2022-10-13T00:38:52.647Z,7.18
2022-10-13T00:41:21.372Z,6.15
2022-10-13T00:43:54.311Z,7.20
2022-10-13T00:46:23.350Z,6.85
2022-10-13T00:48:52.186Z,5.50
2022-10-13T00:51:28.753Z,6.35
2022-10-13T00:53:58.539Z,6.03
2022-10-13T00:56:27.774Z,5.53
2022-10-13T00:58:56.023Z,6.93
2022-10-13T01:01:23.037Z,5.15
2022-10-13T01:03:50.423Z,6.22
2022-10-13T01:06:23.410Z,5.15
2022-10-13T01:08:51.491Z,6.47
2022-10-13T01:11:39.642Z,6.10
2022-10-13T01:14:35.277Z,6.03
2022-10-13T01:17:44.696Z,5.18
2022-10-13T01:20:52.514Z,5.03
2022-10-13T01:23:46.238Z,5.75
2022-10-13T01:26:40.727Z,8.38
2022-10-13T01:29:48.413Z,6.63
2022-10-13T01:32:40.033Z,5.18
2022-10-13T01:35:24.246Z,7.60
2022-10-13T01:38:22.321Z,7.43
2022-10-13T01:41:14.737Z,6.20
2022-10-13T01:44:09.321Z,6.55
2022-10-13T01:46:39.450Z,6.53
2022-10-13T01:49:14.769Z,8.10
2022-10-13T01:51:43.714Z,8.88
2022-10-13T01:54:11.251Z,8.77
2022-10-13T01:56:38.483Z,6.85
2022-10-13T01:59:12.062Z,8.00
2022-10-13T02:01:57.429Z,9.00
2022-10-13T02:05:08.299Z,7.82
2022-10-13T02:07:50.004Z,8.02
2022-10-13T02:10:35.456Z,7.10
2022-10-13T02:13:04.472Z,7.20
2022-10-13T02:15:38.772Z,7.13
2022-10-13T02:18:09.047Z,7.25
2022-10-13T02:20:36.952Z,6.78
2022-10-13T02:23:10.901Z,7.28
2022-10-13T02:25:38.921Z,7.50
2022-10-13T02:28:07.099Z,6.90
2022-10-13T02:30:34.904Z,6.75
2022-10-13T02:33:03.237Z,7.50
2022-10-13T02:35:31.083Z,8.30
2022-10-13T02:37:58.377Z,6.80
2022-10-13T02:40:26.212Z,7.40
2022-10-13T02:42:53.624Z,7.28
2022-10-13T02:45:21.112Z,7.18
2022-10-13T02:47:48.139Z,6.20
2022-10-13T02:50:15.604Z,6.25
2022-10-13T02:52:42.853Z,6.80
2022-10-13T02:55:09.977Z,6.40
2022-10-13T02:57:37.109Z,7.57
2022-10-13T03:00:07.227Z,13.13
2022-10-13T03:02:34.508Z,6.75
2022-10-13T03:05:01.808Z,6.28
2022-10-13T03:07:29.011Z,6.28
2022-10-13T03:09:56.445Z,6.88
2022-10-13T03:12:23.590Z,7.80
2022-10-13T03:14:50.792Z,6.78
2022-10-13T03:17:18.021Z,7.30
2022-10-13T03:19:45.507Z,6.82
2022-10-13T03:22:15.386Z,7.30
2022-10-13T03:24:43.269Z,7.38
2022-10-13T03:27:11.016Z,5.88
2022-10-13T03:29:38.174Z,7.75
2022-10-13T03:32:05.536Z,7.88
2022-10-13T03:34:32.794Z,7.07
2022-10-13T03:36:59.940Z,6.40
2022-10-13T03:39:27.220Z,8.25
2022-10-13T03:41:54.324Z,7.22
2022-10-13T03:44:21.467Z,7.38
2022-10-13T03:46:48.656Z,7.47
2022-10-13T03:49:17.153Z,6.40
2022-10-13T03:51:44.463Z,7.80
2022-10-13T03:54:13.001Z,8.80
2022-10-13T03:56:40.577Z,7.28
2022-10-13T03:59:08.346Z,7.80
2022-10-13T04:01:35.432Z,7.78
2022-10-13T04:04:03.108Z,7.35
2022-10-13T04:06:31.896Z,7.38
2022-10-13T04:08:59.179Z,6.53
2022-10-13T04:11:26.600Z,7.63
2022-10-13T04:13:53.791Z,6.40
2022-10-13T04:16:28.627Z,6.13
2022-10-13T04:19:00.423Z,5.50
2022-10-13T04:21:29.419Z,6.32
2022-10-13T04:23:58.895Z,5.97
2022-10-13T04:26:29.549Z,4.95
2022-10-13T04:28:56.837Z,4.90
2022-10-13T04:31:25.061Z,8.02
2022-10-13T04:33:53.587Z,6.90
2022-10-13T04:36:21.967Z,7.88
2022-10-13T04:38:49.414Z,7.57
2022-10-13T04:41:18.607Z,10.93
2022-10-13T04:43:50.250Z,7.22
2022-10-13T04:46:23.958Z,7.25
2022-10-13T04:48:51.512Z,7.55
2022-10-13T04:51:22.400Z,7.38
2022-10-13T04:53:54.674Z,6.18
2022-10-13T04:56:21.699Z,7.10
2022-10-13T04:58:49.578Z,6.95
2022-10-13T05:01:22.271Z,7.47
2022-10-13T05:03:54.686Z,7.28
2022-10-13T05:06:29.703Z,7.32
2022-10-13T05:08:57.352Z,7.07
2022-10-13T05:11:29.663Z,6.85
2022-10-13T05:13:57.633Z,7.97
2022-10-13T05:16:25.843Z,6.95
2022-10-13T05:18:55.268Z,7.63
2022-10-13T05:21:28.805Z,7.00
2022-10-13T05:23:58.127Z,7.18
2022-10-13T05:26:29.201Z,7.65
2022-10-13T05:29:00.295Z,6.88
2022-10-13T05:31:29.846Z,11.95
2022-10-13T05:33:57.651Z,9.98
2022-10-13T05:36:31.728Z,8.82
2022-10-13T05:39:02.919Z,9.65
2022-10-13T05:41:31.172Z,9.98
2022-10-13T05:44:07.822Z,7.50
2022-10-13T05:46:35.486Z,7.07
2022-10-13T05:49:02.627Z,9.13
2022-10-13T05:51:44.587Z,7.72
2022-10-13T05:57:17.927Z,7.47
2022-10-13T05:59:56.414Z,8.48
2022-10-13T06:02:28.123Z,7.15
2022-10-13T06:04:57.648Z,7.40
2022-10-13T06:07:25.328Z,7.97
2022-10-13T06:09:52.494Z,7.68
2022-10-13T06:12:20.216Z,8.90
2022-10-13T06:14:47.586Z,8.85
2022-10-13T06:17:14.840Z,8.73
2022-10-13T06:19:42.115Z,7.35
2022-10-13T06:22:09.643Z,9.20
2022-10-13T06:24:36.958Z,7.15
2022-10-13T06:27:04.827Z,9.13
2022-10-13T06:29:33.518Z,8.88
2022-10-13T06:32:00.536Z,7.97
2022-10-13T06:34:27.762Z,8.82
2022-10-13T06:36:54.861Z,7.65
2022-10-13T06:39:22.061Z,8.85
2022-10-13T06:41:50.584Z,8.95
2022-10-13T06:44:17.699Z,9.27
2022-10-13T06:46:44.769Z,7.75
2022-10-13T06:49:11.918Z,9.07
2022-10-13T06:51:38.881Z,7.63
2022-10-13T06:54:06.045Z,8.25
2022-10-13T06:56:33.088Z,9.60
2022-10-13T06:59:00.270Z,9.52
2022-10-13T07:01:27.457Z,11.88
2022-10-13T07:03:54.638Z,11.77
2022-10-13T07:06:22.048Z,10.70
2022-10-13T07:08:49.069Z,12.68
2022-10-13T07:11:17.452Z,10.18
2022-10-13T07:13:46.849Z,9.70
2022-10-13T07:16:15.497Z,12.07
2022-10-13T07:18:42.697Z,9.82
2022-10-13T07:21:10.298Z,9.05
2022-10-13T07:23:37.320Z,9.60
2022-10-13T07:26:13.447Z,8.68
2022-10-13T07:28:42.766Z,11.57
2022-10-13T07:31:17.669Z,10.32
2022-10-13T07:33:47.894Z,11.15
2022-10-13T07:36:15.519Z,9.43
2022-10-13T07:38:42.536Z,9.23
2022-10-13T07:41:12.159Z,11.40
2022-10-13T07:43:39.715Z,11.23
2022-10-13T07:46:08.148Z,10.65
2022-10-13T07:48:36.488Z,10.43
2022-10-13T07:51:09.538Z,9.63
2022-10-13T07:53:37.044Z,9.50
2022-10-13T07:56:06.880Z,11.23
2022-10-13T07:58:37.857Z,10.82
2022-10-13T08:01:06.054Z,10.80
2022-10-13T08:03:33.309Z,10.38
2022-10-13T08:06:02.803Z,9.98
2022-10-13T08:08:30.913Z,9.02
2022-10-13T08:11:16.430Z,10.43
2022-10-13T08:13:48.999Z,9.57
2022-10-13T08:16:17.327Z,9.80
2022-10-13T08:18:45.126Z,9.23
2022-10-13T08:24:17.616Z,10.40
2022-10-13T08:26:46.769Z,9.75
2022-10-13T08:29:23.463Z,10.00
2022-10-13T08:31:55.591Z,8.65
2022-10-13T08:34:24.529Z,9.40
2022-10-13T08:36:54.694Z,9.30
2022-10-13T08:39:23.386Z,9.23
2022-10-13T08:41:51.497Z,10.15
2022-10-13T08:45:39.917Z,8.68
2022-10-13T08:47:57.875Z,8.50
2022-10-13T08:50:29.483Z,9.23
2022-10-13T08:53:04.806Z,7.15
2022-10-13T08:55:50.238Z,9.18
2022-10-13T08:58:31.435Z,8.75
2022-10-13T09:01:14.826Z,8.77
2022-10-13T09:04:09.223Z,8.57
2022-10-13T09:06:49.038Z,8.57
2022-10-13T09:09:17.281Z,10.00
2022-10-13T09:11:50.469Z,8.32
2022-10-13T09:14:24.511Z,7.75
2022-10-13T09:16:52.849Z,8.13
2022-10-13T09:19:36.778Z,8.38
2022-10-13T09:22:40.062Z,7.47
2022-10-13T09:25:07.052Z,7.07
2022-10-13T09:28:01.361Z,7.75
2022-10-13T09:30:38.460Z,9.63
2022-10-13T09:33:09.121Z,7.95
2022-10-13T09:35:41.828Z,7.90
2022-10-13T09:38:26.040Z,7.68
2022-10-13T09:41:17.464Z,7.95
2022-10-13T09:43:47.557Z,7.17
2022-10-13T09:46:34.829Z,6.60
2022-10-13T09:49:44.583Z,6.18
2022-10-13T09:52:19.643Z,7.93
2022-10-13T09:54:54.051Z,7.85
2022-10-13T09:57:46.128Z,8.43
2022-10-13T10:00:27.794Z,7.03
2022-10-13T10:03:36.434Z,6.97
2022-10-13T10:06:08.174Z,6.55
2022-10-13T10:09:03.342Z,7.07
2022-10-13T10:11:37.213Z,6.28
2022-10-13T10:14:31.172Z,5.50
2022-10-13T10:17:39.280Z,6.05
2022-10-13T10:20:41.455Z,6.47
2022-10-13T10:23:20.394Z,6.15
2022-10-13T10:25:51.224Z,8.05
2022-10-13T10:29:05.956Z,7.63
2022-10-13T10:32:10.390Z,8.18
2022-10-13T10:34:43.444Z,6.43
2022-10-13T10:37:25.838Z,6.82
2022-10-13T10:40:25.000Z,7.68
2022-10-13T10:43:19.976Z,6.38
2022-10-13T10:45:48.816Z,5.80
2022-10-13T10:48:34.907Z,6.60
2022-10-13T10:51:03.601Z,5.97
2022-10-13T10:53:51.004Z,5.13
2022-10-13T10:56:40.179Z,6.70
2022-10-13T10:59:39.476Z,6.75
2022-10-13T11:02:19.817Z,7.72
2022-10-13T11:04:50.050Z,7.82
2022-10-13T11:07:22.840Z,6.95
2022-10-13T11:09:53.068Z,6.78
2022-10-13T11:12:20.502Z,6.95
2022-10-13T11:14:56.814Z,6.22
2022-10-13T11:17:39.336Z,7.40
2022-10-13T11:20:21.695Z,6.45
2022-10-13T11:23:21.021Z,6.00
2022-10-13T11:25:48.877Z,6.50
2022-10-13T11:28:22.290Z,5.40
2022-10-13T11:31:26.059Z,6.30
2022-10-13T11:33:57.277Z,5.75
2022-10-13T11:36:48.916Z,8.57
2022-10-13T11:39:25.646Z,5.63
2022-10-13T11:42:13.728Z,7.00
2022-10-13T11:44:52.321Z,7.18
2022-10-13T11:47:55.613Z,5.80
2022-10-13T11:51:01.177Z,7.57
2022-10-13T11:53:53.832Z,6.10
2022-10-13T11:56:49.860Z,10.18
2022-10-13T11:59:37.779Z,5.68
2022-10-13T12:02:11.054Z,6.28
2022-10-13T12:04:46.333Z,7.20
2022-10-13T12:07:16.240Z,8.82
2022-10-13T12:09:56.859Z,5.28
2022-10-13T12:12:25.443Z,5.30
2022-10-13T12:14:56.455Z,5.95
2022-10-13T12:17:27.475Z,5.93
2022-10-13T12:20:01.098Z,6.38
2022-10-13T12:22:29.601Z,6.57
2022-10-13T12:25:07.380Z,6.20
2022-10-13T12:27:48.217Z,8.35
2022-10-13T12:30:30.266Z,5.68
2022-10-13T12:35:34.880Z,5.55
2022-10-13T12:38:07.106Z,7.50
2022-10-13T12:40:34.697Z,7.25
2022-10-13T12:43:04.105Z,9.60
2022-10-13T12:45:34.607Z,5.55
2022-10-13T12:48:01.759Z,6.75
2022-10-13T12:50:36.843Z,7.03
2022-10-13T12:53:19.595Z,9.52
2022-10-13T12:56:00.665Z,7.10
2022-10-13T12:58:36.154Z,5.28
2022-10-13T13:01:15.304Z,6.05
2022-10-13T13:03:44.710Z,5.88
2022-10-13T13:06:14.767Z,5.82
2022-10-13T13:08:43.568Z,5.18
2022-10-13T13:11:36.248Z,5.95
2022-10-13T13:14:43.193Z,5.63
2022-10-13T13:17:27.645Z,7.55
2022-10-13T13:20:00.274Z,6.00
2022-10-13T13:22:27.654Z,5.25
2022-10-13T13:24:54.906Z,5.60
2022-10-13T13:27:35.207Z,5.53
2022-10-13T13:30:02.466Z,5.47
2022-10-13T13:32:31.062Z,5.88
2022-10-13T13:34:58.199Z,5.63
2022-10-13T13:37:29.554Z,6.93
2022-10-13T13:39:56.938Z,5.88
2022-10-13T13:42:24.684Z,7.82
2022-10-13T13:44:51.757Z,6.97
2022-10-13T13:47:25.151Z,5.03
2022-10-13T13:49:55.194Z,6.07
2022-10-13T13:52:23.839Z,5.53
2022-10-13T13:54:51.963Z,5.15
2022-10-13T13:57:19.690Z,6.28
2022-10-13T13:59:47.204Z,5.88
2022-10-13T14:02:21.058Z,5.88
2022-10-13T14:04:48.284Z,6.03
2022-10-13T14:07:18.110Z,5.32
2022-10-13T14:09:46.075Z,5.13
2022-10-13T14:12:13.156Z,5.78
2022-10-13T14:14:40.263Z,6.78
2022-10-13T14:17:07.402Z,5.20
2022-10-13T14:19:34.630Z,4.97
2022-10-13T14:22:05.817Z,4.82
2022-10-13T14:24:35.569Z,6.55
2022-10-13T14:27:02.782Z,6.05
2022-10-13T14:29:29.839Z,6.07
2022-10-13T14:31:56.982Z,5.63
2022-10-13T14:34:24.298Z,5.82
2022-10-13T14:36:51.315Z,4.70
2022-10-13T14:39:18.827Z,6.53
2022-10-13T14:41:46.290Z,4.95
2022-10-13T14:44:14.458Z,6.28
2022-10-13T14:46:41.685Z,4.97
2022-10-13T14:49:11.112Z,4.88
2022-10-13T14:51:38.756Z,6.60
2022-10-13T14:54:07.132Z,6.35
2022-10-13T14:56:34.736Z,5.80
2022-10-13T14:59:05.365Z,5.15
2022-10-13T15:01:33.609Z,4.82
2022-10-13T15:04:02.357Z,5.18
2022-10-13T15:06:29.921Z,5.47
2022-10-13T15:08:57.964Z,5.05
2022-10-13T15:11:26.593Z,6.53
2022-10-13T15:13:53.954Z,6.13
2022-10-13T15:16:28.518Z,6.03
2022-10-13T15:18:56.941Z,6.30
2022-10-13T15:21:24.820Z,6.78
2022-10-13T15:23:52.298Z,5.43
2022-10-13T15:26:20.824Z,7.18
2022-10-13T15:28:51.386Z,5.00
2022-10-13T15:31:20.931Z,6.70
2022-10-13T15:33:52.090Z,6.95
2022-10-13T15:36:21.111Z,5.03
2022-10-13T15:38:48.445Z,5.70
2022-10-13T15:41:16.263Z,7.03
2022-10-13T15:43:43.640Z,5.78
2022-10-13T15:46:21.471Z,8.85
2022-10-13T15:48:51.485Z,6.03
2022-10-13T15:51:20.819Z,5.88
2022-10-13T15:53:49.298Z,5.50
2022-10-13T15:56:17.196Z,6.20
2022-10-13T15:58:45.523Z,7.45
2022-10-13T16:01:13.953Z,6.30
2022-10-13T16:03:42.193Z,9.15
2022-10-13T16:06:12.024Z,5.32
2022-10-13T16:08:41.504Z,6.22
2022-10-13T16:11:10.971Z,6.10
2022-10-13T16:13:39.026Z,7.60
2022-10-13T16:16:06.459Z,6.50
2022-10-13T16:18:36.698Z,7.32
2022-10-13T16:21:18.888Z,7.82
2022-10-13T16:23:47.537Z,6.95
2022-10-13T16:26:15.882Z,8.10
2022-10-13T16:28:43.171Z,6.90
2022-10-13T16:31:13.610Z,8.00
2022-10-13T16:33:42.942Z,10.45
2022-10-13T16:36:17.059Z,11.55
2022-10-13T16:38:46.191Z,13.70
2022-10-13T16:41:17.504Z,11.23
2022-10-13T16:43:45.793Z,9.85
2022-10-13T16:46:15.611Z,7.50
2022-10-13T16:48:44.982Z,10.75
2022-10-13T16:51:22.092Z,9.05
2022-10-13T16:53:58.619Z,7.75
2022-10-13T16:56:29.346Z,7.32
2022-10-13T16:58:59.940Z,8.77
2022-10-13T17:01:28.351Z,9.38
2022-10-13T17:03:56.131Z,10.25
2022-10-13T17:06:27.001Z,10.43
2022-10-13T17:08:54.603Z,10.57
2022-10-13T17:11:28.270Z,10.23
2022-10-13T17:13:57.733Z,11.23
2022-10-13T17:16:25.075Z,10.43
2022-10-13T17:18:52.246Z,8.75
2022-10-13T17:21:21.933Z,10.00
2022-10-13T17:23:49.501Z,9.52
2022-10-13T17:26:18.424Z,12.90
2022-10-13T17:28:45.984Z,10.95
2022-10-13T17:31:18.934Z,10.48
2022-10-13T17:33:47.122Z,15.50
2022-10-13T17:36:24.803Z,9.95
2022-10-13T17:38:53.798Z,9.63
2022-10-13T17:41:22.161Z,9.77
2022-10-13T17:43:51.142Z,10.85
2022-10-13T17:46:37.044Z,9.23
2022-10-13T17:49:07.823Z,10.35
2022-10-13T17:51:35.238Z,8.30
2022-10-13T17:54:02.708Z,10.63
2022-10-13T17:56:30.116Z,10.85
2022-10-13T17:58:57.488Z,12.02
2022-10-13T18:01:33.868Z,11.88
2022-10-13T18:04:05.401Z,10.32
2022-10-13T18:09:18.423Z,10.15
2022-10-13T18:11:50.553Z,14.02
2022-10-13T18:14:23.981Z,10.15
2022-10-13T18:16:52.478Z,13.35
2022-10-13T18:19:21.380Z,12.07
2022-10-13T18:21:49.400Z,11.68
2022-10-13T18:24:16.606Z,14.32
2022-10-13T18:26:43.834Z,11.63
2022-10-13T18:29:12.370Z,14.45
2022-10-13T18:31:41.441Z,12.07
2022-10-13T18:34:15.399Z,13.13
2022-10-13T18:36:47.360Z,10.95
2022-10-13T18:41:44.967Z,10.95
2022-10-13T18:44:12.302Z,11.05
2022-10-13T18:46:40.472Z,10.10
2022-10-13T18:49:12.418Z,10.48
2022-10-13T18:54:08.427Z,9.38
2022-10-13T18:56:37.110Z,10.32
2022-10-13T18:59:08.300Z,9.23
2022-10-13T19:01:37.715Z,9.80
2022-10-13T19:04:06.275Z,9.15
2022-10-13T19:06:33.698Z,8.85
2022-10-13T19:09:08.363Z,8.20
2022-10-13T19:11:36.386Z,9.15
2022-10-13T19:14:05.791Z,9.75
2022-10-13T19:16:37.778Z,10.23
2022-10-13T19:21:32.773Z,9.93
2022-10-13T19:24:00.535Z,9.60
2022-10-13T19:26:31.325Z,8.57
2022-10-13T19:29:09.009Z,7.63
2022-10-13T19:31:38.063Z,7.70
2022-10-13T19:34:05.460Z,7.18
2022-10-13T19:36:37.625Z,9.38
2022-10-13T19:39:11.934Z,9.02
2022-10-13T19:41:39.712Z,7.75
2022-10-13T19:44:06.815Z,7.07
2022-10-13T19:46:36.695Z,9.23
2022-10-13T19:49:04.779Z,7.68
2022-10-13T19:51:32.117Z,7.85
2022-10-13T19:53:59.272Z,6.85
2022-10-13T19:56:31.467Z,6.50
2022-10-13T19:58:59.609Z,6.80
2022-10-13T20:01:27.839Z,7.43
2022-10-13T20:03:55.012Z,8.57
2022-10-13T20:06:23.087Z,14.23
2022-10-13T20:08:50.401Z,13.23
2022-10-13T20:11:23.709Z,8.13
2022-10-13T20:13:52.701Z,8.48
2022-10-13T20:16:23.415Z,8.40
2022-10-13T20:18:57.014Z,8.35
2022-10-13T20:21:25.763Z,8.73
2022-10-13T20:23:53.456Z,9.55
2022-10-13T20:26:21.224Z,11.43
2022-10-13T20:28:50.556Z,9.80
2022-10-13T20:31:21.329Z,12.85
2022-10-13T20:33:52.591Z,11.55
2022-10-13T20:36:20.164Z,10.35
2022-10-13T20:38:49.424Z,9.45
2022-10-13T20:41:23.466Z,10.75
2022-10-13T20:43:51.852Z,9.05
2022-10-13T20:46:20.669Z,10.85
2022-10-13T20:51:36.679Z,10.20
2022-10-13T20:54:03.812Z,8.48
2022-10-13T20:56:30.957Z,8.10
2022-10-13T20:59:06.868Z,7.85
2022-10-13T21:01:34.265Z,8.63
2022-10-13T21:04:01.565Z,6.57
2022-10-13T21:06:31.059Z,10.57
2022-10-13T21:08:58.258Z,8.10
2022-10-13T21:11:25.686Z,7.25
2022-10-13T21:13:53.378Z,6.25
2022-10-13T21:16:24.763Z,8.65
2022-10-13T21:18:52.290Z,6.18
2022-10-13T21:21:29.319Z,6.45
2022-10-13T21:23:59.597Z,6.45
2022-10-13T21:26:29.558Z,8.05
2022-10-13T21:28:57.401Z,9.45
2022-10-13T21:31:26.883Z,6.65
2022-10-13T21:33:54.747Z,6.07
2022-10-13T21:36:29.483Z,6.90
2022-10-13T21:39:03.718Z,8.43
2022-10-13T21:41:31.405Z,8.90
2022-10-13T21:43:59.661Z,6.40
2022-10-13T21:46:29.808Z,7.18
2022-10-13T21:49:00.027Z,8.10
2022-10-13T21:51:38.043Z,5.78
2022-10-13T21:54:09.384Z,7.00
2022-10-13T21:56:37.366Z,6.53
2022-10-13T21:59:05.653Z,5.82
2022-10-13T22:01:33.582Z,8.88
2022-10-13T22:04:02.671Z,5.55
2022-10-13T22:06:32.263Z,6.55
2022-10-13T22:09:03.837Z,5.65
2022-10-13T22:11:33.686Z,6.25
2022-10-13T22:14:01.099Z,9.20
2022-10-13T22:16:36.983Z,6.35
2022-10-13T22:19:04.660Z,5.97
2022-10-13T22:21:38.344Z,7.20
2022-10-13T22:24:08.425Z,6.90
2022-10-13T22:26:39.390Z,4.93
2022-10-13T22:29:08.907Z,6.60
2022-10-13T22:31:36.664Z,7.15
2022-10-13T22:34:04.634Z,6.15
2022-10-13T22:36:31.918Z,7.82
2022-10-13T22:39:03.008Z,7.85
2022-10-13T22:41:32.753Z,5.68
2022-10-13T22:44:01.210Z,6.35
2022-10-13T22:46:32.900Z,5.40
2022-10-13T22:49:00.755Z,7.70
2022-10-13T22:51:31.211Z,5.95
2022-10-13T22:53:59.206Z,9.80
2022-10-13T22:56:30.357Z,7.22
2022-10-13T22:59:01.728Z,8.82
2022-10-13T23:01:29.417Z,5.63
2022-10-13T23:03:58.829Z,6.03
2022-10-13T23:06:30.237Z,6.25
2022-10-13T23:09:01.708Z,6.82
2022-10-13T23:11:29.198Z,6.55
2022-10-13T23:13:56.426Z,6.45
2022-10-13T23:16:25.943Z,10.30
2022-10-13T23:18:54.140Z,5.95
2022-10-13T23:21:24.117Z,6.50
2022-10-13T23:24:00.282Z,6.95
2022-10-13T23:26:28.685Z,6.05
2022-10-13T23:28:57.135Z,6.03
2022-10-13T23:31:24.774Z,8.18
2022-10-13T23:33:52.230Z,6.63
2022-10-13T23:36:23.002Z,8.60
2022-10-13T23:39:00.051Z,6.35
2022-10-13T23:41:28.144Z,6.43
2022-10-13T23:43:55.374Z,6.60
2022-10-13T23:46:22.832Z,7.95
2022-10-13T23:48:50.136Z,9.23
2022-10-13T23:51:21.451Z,7.82
2022-10-13T23:53:48.835Z,6.80
2022-10-13T23:56:16.226Z,6.40
2022-10-13T23:58:44.916Z,7.63
